Главная страница
METAR-TAF:

METAR-TAF

Аэропорты :

Синоп, Турция

широта: 42-00-57N, долгота: 035-03-59E, высота над уровнем моря: 7 м

Текущие метеонаблюдения

Эта сводка был подготовлена 5 часа и 44 минут назад, в 16:50 UTC
Ветер 3 Узел от северно-северо-западный
Температура 25°C
Влажность 74%
Давление 1010 hPa
Видимость 10 км и более
Нет облачности ниже 1500 м, и нет кучево-дождевой облачности

METAR: LTCM 171650Z 33003KT CAVOK 25/20 Q1010

Время: 01:34 (22:34 UTC)

Прогноз

Эта сводка был подготовлена 8 часа и 54 минут назад, в 13:40 UTC
Прогноз действительный с 17-го 15 UTC до 17-го 24 UTC
Ветер 10 Узел от восточный
Видимость 10 км и более
небольшая облачность на высоте 3600 фута

TAF: LTCM 171340Z 1715/1724 08010KT 9999 FEW036

Метеонаблюдения и прогнозы для более 4000 аэропортов (сводки METAR и TAF).

Имеющиеся станции представлены на карте желтыми и красными точками.

Чтобы увидеть название станции, наведите на нее мышь.

Затем щелкните, чтобы увидеть метеонаблюдения и метеопрогнозы.

Управление картой: чтобы увеличить масштаб, щелкните зеленые кнопки с черным крестиком; чтобы уменьшить масштаб, щелкните зеленую кнопку с тире; для просмотра соседних карт щелкайте зеленые стрелки.


METAR-TAF: